Time;durP1;ratioP1;P1;durP2;ratioP2;P2;SDS_P1;SDS_P2;PMS_P1;PMS_P2;Temp;Humidity;BMP_temperature;BMP_pressure;BME280_temperature;BME280_humidity;BME280_pressure;Samples;Min_cycle;Max_cycle;Signal;HPM_P1;HPM_P2
2022/12/16 00:00:22;;;;;;;38.22;24.23;;;0.00;99.90;;;;;;5030850;28;20051;-74
2022/12/16 00:02:48;;;;;;;30.23;21.17;;;0.00;99.90;;;;;;5025334;28;20099;-74
2022/12/16 00:05:14;;;;;;;31.20;19.77;;;-0.10;99.90;;;;;;5025424;28;20076;-74
2022/12/16 00:07:40;;;;;;;31.98;18.80;;;0.00;99.90;;;;;;5027689;28;20079;-77
2022/12/16 00:10:07;;;;;;;28.45;19.25;;;-0.10;99.90;;;;;;5025653;28;20064;-77
2022/12/16 00:12:32;;;;;;;33.35;20.88;;;0.00;99.90;;;;;;5045750;28;20853;-76
2022/12/16 00:14:58;;;;;;;34.00;23.17;;;0.00;99.90;;;;;;5025501;28;20041;-75
2022/12/16 00:17:24;;;;;;;30.50;21.42;;;0.00;99.90;;;;;;5041934;28;20056;-76
2022/12/16 00:19:49;;;;;;;34.95;21.35;;;-0.10;99.90;;;;;;5016193;28;22180;-76
2022/12/16 00:22:15;;;;;;;30.75;20.38;;;0.00;99.90;;;;;;5016552;28;20412;-77
2022/12/16 00:24:41;;;;;;;33.17;20.85;;;2.00;99.90;;;;;;5009820;28;20058;-77
2022/12/16 00:27:07;;;;;;;27.77;18.63;;;-0.10;99.90;;;;;;5029434;28;20059;-77
2022/12/16 00:29:33;;;;;;;27.77;19.02;;;-0.40;99.90;;;;;;5037113;28;20195;-76
2022/12/16 00:31:59;;;;;;;25.70;19.38;;;-0.20;99.90;;;;;;5035174;28;20038;-76
2022/12/16 00:34:25;;;;;;;27.88;19.23;;;-0.10;99.90;;;;;;5037013;28;20040;-77
2022/12/16 00:36:51;;;;;;;29.25;18.23;;;2.00;99.90;;;;;;5044067;28;20052;-76
2022/12/16 00:39:16;;;;;;;25.08;16.45;;;0.80;99.90;;;;;;5039802;28;20041;-77
2022/12/16 00:41:42;;;;;;;20.70;14.80;;;-0.10;99.90;;;;;;5048009;28;20072;-76
2022/12/16 00:44:08;;;;;;;22.27;14.55;;;0.00;99.90;;;;;;5048328;28;20052;-75
2022/12/16 00:46:33;;;;;;;22.00;13.07;;;0.10;99.90;;;;;;5046509;28;20052;-76
2022/12/16 00:48:59;;;;;;;17.67;12.40;;;0.10;99.90;;;;;;5046362;28;20481;-77
2022/12/16 00:51:25;;;;;;;22.02;11.63;;;0.00;99.90;;;;;;5039194;28;20044;-76
2022/12/16 00:53:51;;;;;;;17.08;11.68;;;0.50;99.90;;;;;;5043749;28;20080;-77
2022/12/16 00:56:17;;;;;;;14.52;10.65;;;1.80;99.90;;;;;;5046013;28;20076;-77
2022/12/16 00:58:43;;;;;;;15.35;9.70;;;0.10;99.90;;;;;;5045674;28;20029;-76
2022/12/16 01:01:09;;;;;;;18.38;9.25;;;1.70;99.90;;;;;;5030153;28;20033;-77
2022/12/16 01:03:35;;;;;;;13.02;8.85;;;1.30;99.90;;;;;;5023291;28;20405;-76
2022/12/16 01:06:05;;;;;;;11.23;8.27;;;-0.20;99.90;;;;;;5034386;28;20048;-78
2022/12/16 01:08:31;;;;;;;14.35;7.63;;;-0.10;99.90;;;;;;5034744;28;20041;-77
2022/12/16 01:10:57;;;;;;;13.57;7.82;;;-0.10;99.90;;;;;;5033335;28;20060;-77
2022/12/16 01:13:24;;;;;;;13.73;6.78;;;0.00;99.90;;;;;;5036444;28;20460;-76
2022/12/16 01:15:50;;;;;;;13.43;6.80;;;0.10;99.90;;;;;;5040638;28;20041;-76
2022/12/16 01:18:16;;;;;;;8.80;5.55;;;-0.40;99.90;;;;;;5021659;28;20562;-76
2022/12/16 01:20:42;;;;;;;8.60;6.18;;;-0.30;99.90;;;;;;5035266;28;20063;-77
2022/12/16 01:23:08;;;;;;;10.82;5.50;;;1.40;99.90;;;;;;5036930;28;20040;-76
2022/12/16 01:25:34;;;;;;;10.32;5.88;;;0.00;99.90;;;;;;5034405;28;20401;-76
2022/12/16 01:27:59;;;;;;;11.32;5.07;;;0.20;99.90;;;;;;5073403;28;20037;-76
2022/12/16 01:30:27;;;;;;;9.10;4.35;;;0.00;99.90;;;;;;5028444;28;20049;-77
2022/12/16 01:32:52;;;;;;;13.77;4.45;;;0.00;99.90;;;;;;5045224;28;20067;-76
2022/12/16 01:35:18;;;;;;;8.95;4.07;;;0.00;99.90;;;;;;5033717;28;20528;-76
2022/12/16 01:37:44;;;;;;;5.07;3.20;;;2.10;99.90;;;;;;5059758;28;20036;-76
2022/12/16 01:40:20;;;;;;;4.70;3.53;;;0.00;99.90;;;;;;5046676;28;20045;-76
2022/12/16 01:42:46;;;;;;;5.15;3.60;;;0.10;99.90;;;;;;5046066;28;20041;-76
2022/12/16 01:45:23;;;;;;;6.20;3.40;;;2.40;99.90;;;;;;5047228;28;20041;-74
2022/12/16 01:47:52;;;;;;;7.22;3.47;;;-0.30;99.90;;;;;;5043822;28;20038;-75
2022/12/16 01:50:18;;;;;;;8.88;3.97;;;1.80;99.90;;;;;;5025778;28;20579;-75
2022/12/16 01:52:50;;;;;;;9.27;3.70;;;0.10;99.90;;;;;;5043725;28;20068;-75
2022/12/16 01:55:45;;;;;;;5.43;3.70;;;-0.20;99.90;;;;;;5043891;28;20052;-75
2022/12/16 01:58:17;;;;;;;3.95;3.22;;;0.10;99.90;;;;;;5043607;28;20103;-75
2022/12/16 02:00:42;;;;;;;6.80;3.20;;;-1.30;99.90;;;;;;5037620;28;20041;-74
2022/12/16 02:03:09;;;;;;;5.13;3.17;;;0.10;99.90;;;;;;5045762;28;20454;-75
2022/12/16 02:05:38;;;;;;;9.40;3.92;;;0.90;99.90;;;;;;5057396;28;20033;-75
2022/12/16 02:08:18;;;;;;;6.18;3.05;;;0.20;99.90;;;;;;5046929;28;20136;-75
2022/12/16 02:11:03;;;;;;;7.05;3.67;;;2.30;99.90;;;;;;5044385;28;20033;-75
2022/12/16 02:14:14;;;;;;;10.60;3.58;;;0.20;99.90;;;;;;5034852;28;21722;-74
2022/12/16 02:17:02;;;;;;;6.22;3.53;;;0.20;99.90;;;;;;5044386;28;20079;-75
2022/12/16 02:20:16;;;;;;;8.32;3.60;;;-1.20;99.90;;;;;;5047445;28;20124;-75
2022/12/16 02:23:07;;;;;;;10.45;3.58;;;0.30;99.90;;;;;;5075580;28;20048;-75
2022/12/16 02:25:52;;;;;;;8.43;3.22;;;0.30;99.90;;;;;;5037671;28;20079;-75
2022/12/16 02:28:23;;;;;;;;;;;0.30;99.90;;;;;;5052827;28;20399;-76
2022/12/16 02:30:59;;;;;;;9.05;3.70;;;0.30;99.90;;;;;;5075996;28;19975;-78
2022/12/16 02:33:32;;;;;;;6.05;3.08;;;0.30;99.90;;;;;;5036429;28;20041;-76
2022/12/16 02:36:01;;;;;;;6.78;3.45;;;0.30;99.90;;;;;;5014593;28;20037;-75
2022/12/16 02:38:31;;;;;;;7.35;3.83;;;0.30;99.90;;;;;;5046393;28;20043;-76
2022/12/16 02:41:02;;;;;;;8.55;3.80;;;0.60;99.90;;;;;;5029137;28;20033;-76
2022/12/16 02:43:53;;;;;;;9.48;3.50;;;1.00;99.90;;;;;;5030552;28;20053;-76
2022/12/16 02:46:32;;;;;;;5.75;3.80;;;0.40;99.90;;;;;;5013442;28;20079;-75
2022/12/16 02:49:24;;;;;;;9.52;3.58;;;1.90;99.90;;;;;;5032825;28;20056;-76
2022/12/16 02:51:51;;;;;;;8.80;4.25;;;0.40;99.90;;;;;;5004350;28;20057;-76
2022/12/16 02:54:17;;;;;;;5.60;3.72;;;0.40;99.90;;;;;;5032887;28;20579;-75
2022/12/16 02:57:18;;;;;;;8.95;3.95;;;0.50;99.90;;;;;;5017239;28;20494;-76
2022/12/16 03:00:05;;;;;;;6.90;4.03;;;0.50;99.90;;;;;;5033117;28;20056;-75
2022/12/16 03:02:54;;;;;;;7.45;4.30;;;0.50;99.90;;;;;;5035010;28;20052;-76
2022/12/16 03:05:46;;;;;;;7.82;4.70;;;0.50;99.90;;;;;;5013738;28;20079;-76
2022/12/16 03:08:17;;;;;;;4.90;3.90;;;0.50;99.90;;;;;;5044823;28;20051;-76
2022/12/16 03:10:46;;;;;;;5.35;3.70;;;0.60;99.90;;;;;;5043262;28;20065;-76
2022/12/16 03:13:15;;;;;;;5.30;4.32;;;2.60;99.90;;;;;;5045543;28;20099;-76
2022/12/16 03:15:43;;;;;;;6.57;4.45;;;0.70;99.90;;;;;;5037896;28;20087;-76
2022/12/16 03:18:12;;;;;;;5.90;4.30;;;0.70;99.90;;;;;;5059622;28;20132;-76
2022/12/16 03:20:49;;;;;;;8.35;3.97;;;2.00;99.90;;;;;;5046567;28;20449;-76
2022/12/16 03:23:20;;;;;;;8.52;3.88;;;0.70;99.90;;;;;;5022078;28;20083;-76
2022/12/16 03:25:49;;;;;;;8.15;4.45;;;0.70;99.90;;;;;;5079302;28;20047;-75
2022/12/16 03:29:04;;;;;;;8.20;4.70;;;0.70;99.90;;;;;;5044251;28;21761;-75
2022/12/16 03:31:42;;;;;;;4.38;3.85;;;0.70;99.90;;;;;;4945463;28;20046;-76
2022/12/16 03:34:16;;;;;;;7.72;4.57;;;0.70;99.90;;;;;;4978284;28;20159;-76
2022/12/16 03:36:48;;;;;;;5.03;4.13;;;1.00;99.90;;;;;;5043532;28;20497;-76
2022/12/16 03:39:15;;;;;;;8.55;4.70;;;0.70;99.90;;;;;;5045115;28;20135;-76
2022/12/16 03:41:43;;;;;;;6.93;4.68;;;0.40;99.90;;;;;;5046009;28;20033;-76
2022/12/16 03:44:09;;;;;;;7.85;4.57;;;0.60;99.90;;;;;;5040202;28;20037;-76
2022/12/16 03:46:35;;;;;;;6.53;4.53;;;0.60;99.90;;;;;;5044619;28;20119;-75
2022/12/16 03:49:01;;;;;;;9.32;4.97;;;2.20;99.90;;;;;;5044664;28;20085;-75
2022/12/16 03:51:27;;;;;;;7.97;4.55;;;0.60;99.90;;;;;;5024589;28;20600;-75
2022/12/16 03:53:53;;;;;;;8.75;4.90;;;2.40;99.90;;;;;;5054811;28;20045;-74
2022/12/16 03:56:19;;;;;;;6.65;4.45;;;0.60;99.90;;;;;;5023793;28;20163;-75
2022/12/16 03:58:45;;;;;;;9.32;4.70;;;0.20;99.90;;;;;;5044653;28;20067;-75
2022/12/16 04:01:12;;;;;;;7.28;4.63;;;0.50;99.90;;;;;;5041639;28;20033;-75
2022/12/16 04:03:37;;;;;;;8.65;5.45;;;0.60;99.90;;;;;;5038280;28;20041;-75
2022/12/16 04:06:04;;;;;;;14.02;6.45;;;0.60;99.90;;;;;;5046680;28;20098;-75
2022/12/16 04:08:29;;;;;;;12.20;6.78;;;0.60;99.90;;;;;;5048384;28;20041;-75
2022/12/16 04:24:48;;;;;;;24.63;16.55;;;0.70;99.90;;;;;;5045931;28;20048;-77
2022/12/16 04:27:26;;;;;;;30.50;18.80;;;0.80;99.90;;;;;;5060830;28;20040;-77
